Seafalcon — 9HA2814 — position and weather

sailwx.info

Track history (hours):
 
Tides and Currents Weather Stations Pressure Air Temp Water Temp Dewpoint Dewpoint Depression Visibility Wind Speed Wind Dir Waves Ship Positions

Seafalcon

Last reported at 2014-Oct-24 15:34 UTC. Time now 2014-Oct-25 02:52 UTC.
Position N 43°10' E 009°33'.

Length 250 m; draft 8.4 m.

Type: Tanker. MMSI: 256078000.

Date/timePositionNaut miles runAvg speedWind from/ knotsBaromVisibWave heightAir tempDewpointWater temp
2014-Oct-24 15:34N 43°10' E 009°33'1110.6
2014-Oct-24 14:33N 43°19' E 009°27'1110.6
2014-Oct-24 13:33N 43°29' E 009°22'1010.5
2014-Oct-24 12:33N 43°39' E 009°17'1010.3
2014-Oct-24 11:33N 43°49' E 009°11'1010.1
2014-Oct-24 10:33N 43°58' E 009°06'1010.4
2014-Oct-24 09:34N 44°07' E 008°59'1110.7
2014-Oct-24 08:34N 44°16' E 008°51'9 9.0
2014-Oct-24 07:34N 44°25' E 008°48'2 1.4
2014-Oct-24 06:24N 44°25' E 008°50'0 0.0
2014-Oct-24 03:27N 44°25' E 008°50'0 0.0
2014-Oct-24 02:21N 44°25' E 008°50'0 0.0
2014-Oct-24 00:09N 44°25' E 008°50'0 0.0
2014-Oct-23 03:27N 44°25' E 008°50'0 0.0
2014-Oct-22 07:09N 44°25' E 008°50'0 0.0
2014-Oct-22 03:27N 44°25' E 008°50'0 0.0
2014-Oct-22 00:09N 44°25' E 008°50'0 0.0
2014-Oct-21 07:33N 44°25' E 008°50'0 0.0
2014-Oct-21 06:33N 44°25' E 008°50'3 2.6
2014-Oct-21 05:33N 44°24' E 008°47'5 4.7
2014-Oct-21 04:33N 44°19' E 008°46'1 1.3
2014-Oct-21 03:33N 44°18' E 008°48'2 2.4
2014-Oct-21 02:33N 44°19' E 008°51'8 7.9
2014-Oct-21 01:33N 44°12' E 008°56'1010.2
2014-Oct-21 00:33N 44°03' E 009°03'1110.8
2014-Oct-20 23:33N 43°53' E 009°09'1010.3
2014-Oct-20 22:33N 43°44' E 009°14'1010.4
2014-Oct-20 21:33N 43°34' E 009°20'1010.4
2014-Oct-20 20:33N 43°25' E 009°25'1110.7
2014-Oct-20 19:33N 43°15' E 009°31'1110.7
2014-Oct-20 18:32N 43°05' E 009°36'41010.0
2014-Oct-19 01:33N 36°56' E 013°31'1010.4
2014-Oct-19 00:33N 36°51' E 013°42'1010.2
2014-Oct-18 23:33N 36°46' E 013°53'1010.1
2014-Oct-18 22:33N 36°41' E 014°04'11 9.9
2014-Oct-18 21:25N 36°36' E 014°17'9 9.9
2014-Oct-18 20:33N 36°31' E 014°26'10 9.6
2014-Oct-18 19:33N 36°26' E 014°36'9 9.3
2014-Oct-18 18:33N 36°23' E 014°47'9 9.2
2014-Oct-18 17:33N 36°19' E 014°57'19 9.3
2014-Oct-18 15:32N 36°12' E 015°19'11 9.5
2014-Oct-18 14:25N 36°08' E 015°31'18711.1
2014-Oct-17 21:32N 34°55' E 019°02'1412.1
2014-Oct-17 20:23N 34°49' E 019°18'5911.9
2014-Oct-17 15:27N 34°26' E 020°23'2511.7
2014-Oct-17 13:20N 34°16' E 020°51'1412.1
2014-Oct-17 12:10N 34°11' E 021°07'812.2
2014-Oct-17 11:32N 34°08' E 021°15'  
Track history (hours):
 
Tides and Currents Weather Stations Pressure Air Temp Water Temp Dewpoint Dewpoint Depression Visibility Wind Speed Wind Dir Waves Ship Positions

Seafalcon

Last reported at 2014-Oct-24 15:34 UTC. Time now 2014-Oct-25 02:52 UTC.
Position N 43°10' E 009°33'.

Length 250 m; draft 8.4 m.

Type: Tanker. MMSI: 256078000.

Date/timePositionNaut miles runAvg speedWind from/ knotsBaromVisibWave heightAir tempDewpointWater temp
2014-Oct-24 15:34N 43°10' E 009°33'1110.6
2014-Oct-24 14:33N 43°19' E 009°27'1110.6
2014-Oct-24 13:33N 43°29' E 009°22'1010.5
2014-Oct-24 12:33N 43°39' E 009°17'1010.3
2014-Oct-24 11:33N 43°49' E 009°11'1010.1
2014-Oct-24 10:33N 43°58' E 009°06'1010.4
2014-Oct-24 09:34N 44°07' E 008°59'1110.7
2014-Oct-24 08:34N 44°16' E 008°51'9 9.0
2014-Oct-24 07:34N 44°25' E 008°48'2 1.4
2014-Oct-24 06:24N 44°25' E 008°50'0 0.0
2014-Oct-24 03:27N 44°25' E 008°50'0 0.0
2014-Oct-24 02:21N 44°25' E 008°50'0 0.0
2014-Oct-24 00:09N 44°25' E 008°50'0 0.0
2014-Oct-23 03:27N 44°25' E 008°50'0 0.0
2014-Oct-22 07:09N 44°25' E 008°50'0 0.0
2014-Oct-22 03:27N 44°25' E 008°50'0 0.0
2014-Oct-22 00:09N 44°25' E 008°50'0 0.0
2014-Oct-21 07:33N 44°25' E 008°50'0 0.0
2014-Oct-21 06:33N 44°25' E 008°50'3 2.6
2014-Oct-21 05:33N 44°24' E 008°47'5 4.7
2014-Oct-21 04:33N 44°19' E 008°46'1 1.3
2014-Oct-21 03:33N 44°18' E 008°48'2 2.4
2014-Oct-21 02:33N 44°19' E 008°51'8 7.9
2014-Oct-21 01:33N 44°12' E 008°56'1010.2
2014-Oct-21 00:33N 44°03' E 009°03'1110.8
2014-Oct-20 23:33N 43°53' E 009°09'1010.3
2014-Oct-20 22:33N 43°44' E 009°14'1010.4
2014-Oct-20 21:33N 43°34' E 009°20'1010.4
2014-Oct-20 20:33N 43°25' E 009°25'1110.7
2014-Oct-20 19:33N 43°15' E 009°31'1110.7
2014-Oct-20 18:32N 43°05' E 009°36'41010.0
2014-Oct-19 01:33N 36°56' E 013°31'1010.4
2014-Oct-19 00:33N 36°51' E 013°42'1010.2
2014-Oct-18 23:33N 36°46' E 013°53'1010.1
2014-Oct-18 22:33N 36°41' E 014°04'11 9.9
2014-Oct-18 21:25N 36°36' E 014°17'9 9.9
2014-Oct-18 20:33N 36°31' E 014°26'10 9.6
2014-Oct-18 19:33N 36°26' E 014°36'9 9.3
2014-Oct-18 18:33N 36°23' E 014°47'9 9.2
2014-Oct-18 17:33N 36°19' E 014°57'19 9.3
2014-Oct-18 15:32N 36°12' E 015°19'11 9.5
2014-Oct-18 14:25N 36°08' E 015°31'18711.1
2014-Oct-17 21:32N 34°55' E 019°02'1412.1
2014-Oct-17 20:23N 34°49' E 019°18'5911.9
2014-Oct-17 15:27N 34°26' E 020°23'2511.7
2014-Oct-17 13:20N 34°16' E 020°51'1412.1
2014-Oct-17 12:10N 34°11' E 021°07'812.2
2014-Oct-17 11:32N 34°08' E 021°15'  

Dump ship's entire track history